Time;durP1;ratioP1;P1;durP2;ratioP2;P2;SDS_P1;SDS_P2;PMS_P1;PMS_P2;Temp;Humidity;BMP_temperature;BMP_pressure;BME280_temperature;BME280_humidity;BME280_pressure;Samples;Min_cycle;Max_cycle;Signal;HPM_P1;HPM_P2
2022/02/14 00:02:04;;;;;;;;;;;14.30;99.90;;;;;;5037351;28;806;-47
2022/02/14 00:04:30;;;;;;;;;;;14.20;99.90;;;;;;5036543;28;1902;-46
2022/02/14 00:06:56;;;;;;;;;;;14.20;99.90;;;;;;5036988;28;822;-56
2022/02/14 00:09:21;;;;;;;;;;;14.20;99.90;;;;;;5019733;28;942;-56
2022/02/14 00:11:48;;;;;;;;;;;14.20;99.90;;;;;;5036247;28;886;-56
2022/02/14 00:14:14;;;;;;;;;;;14.20;99.90;;;;;;5036789;28;877;-56
2022/02/14 00:16:39;;;;;;;;;;;14.20;99.90;;;;;;5036938;28;957;-57
2022/02/14 00:19:06;;;;;;;;;;;14.10;99.90;;;;;;5036308;28;881;-57
2022/02/14 00:21:32;;;;;;;;;;;14.10;99.90;;;;;;5036742;28;861;-57
2022/02/14 00:23:58;;;;;;;;;;;14.10;99.90;;;;;;5019272;28;806;-46
2022/02/14 00:26:25;;;;;;;;;;;14.10;99.90;;;;;;5020894;28;1979;-47
2022/02/14 00:28:51;;;;;;;;;;;14.10;99.90;;;;;;5038638;28;795;-51
2022/02/14 00:31:17;;;;;;;;;;;14.10;99.90;;;;;;5035575;28;885;-55
2022/02/14 00:33:43;;;;;;;;;;;14.00;99.90;;;;;;5036510;28;1162;-56
2022/02/14 00:36:10;;;;;;;;;;;14.00;99.90;;;;;;5035997;28;942;-56
2022/02/14 00:38:35;;;;;;;;;;;14.00;99.90;;;;;;5036462;28;852;-56
2022/02/14 00:41:02;;;;;;;;;;;14.00;99.90;;;;;;5036425;28;766;-56
2022/02/14 00:43:29;;;;;;;;;;;14.00;99.90;;;;;;5036232;28;1079;-56
2022/02/14 00:45:56;;;;;;;;;;;14.00;99.90;;;;;;5034036;28;1989;-57
2022/02/14 00:48:22;;;;;;;;;;;13.90;99.90;;;;;;5036162;28;866;-56
2022/02/14 00:50:48;;;;;;;;;;;13.90;99.90;;;;;;5036122;28;751;-57
2022/02/14 00:53:14;;;;;;;;;;;13.90;99.90;;;;;;5036148;28;854;-56
2022/02/14 00:55:40;;;;;;;;;;;13.90;99.90;;;;;;5036276;28;1123;-57
2022/02/14 00:58:07;;;;;;;;;;;13.90;99.90;;;;;;5036128;28;885;-56
2022/02/14 01:00:33;;;;;;;;;;;13.90;99.90;;;;;;5036077;28;882;-56
2022/02/14 01:03:00;;;;;;;;;;;13.90;99.90;;;;;;5018576;28;1245;-56
2022/02/14 01:05:26;;;;;;;;;;;13.90;99.90;;;;;;5035105;28;1983;-56
2022/02/14 01:07:52;;;;;;;;;;;13.80;99.90;;;;;;5035977;28;849;-57
2022/02/14 01:10:18;;;;;;;;;;;13.80;99.90;;;;;;5035350;28;893;-56
2022/02/14 01:12:44;;;;;;;;;;;13.80;99.90;;;;;;5014839;28;859;-56
2022/02/14 01:15:10;;;;;;;;;;;13.80;99.90;;;;;;5035903;28;896;-57
2022/02/14 01:17:37;;;;;;;;;;;13.80;99.90;;;;;;5035823;28;878;-56
2022/02/14 01:20:04;;;;;;;;;;;13.80;99.90;;;;;;5017915;28;886;-56
2022/02/14 01:22:30;;;;;;;;;;;13.80;99.90;;;;;;5035784;28;785;-57
2022/02/14 01:24:57;;;;;;;;;;;13.80;99.90;;;;;;5035684;28;1914;-56
2022/02/14 01:27:23;;;;;;;;;;;13.80;99.90;;;;;;5034937;28;1002;-57
2022/02/14 01:29:49;;;;;;;;;;;13.70;99.90;;;;;;5035798;28;774;-57
2022/02/14 01:32:19;;;;;;;;;;;13.70;99.90;;;;;;5018479;28;829;-56
2022/02/14 01:34:45;;;;;;;;;;;13.70;99.90;;;;;;5023274;28;1033;-56
2022/02/14 01:37:11;;;;;;;;;;;13.70;99.90;;;;;;5035709;28;761;-56
2022/02/14 01:39:37;;;;;;;;;;;13.70;99.90;;;;;;5032141;28;1410;-56
2022/02/14 01:42:03;;;;;;;;;;;13.70;99.90;;;;;;5035036;28;1296;-56
2022/02/14 01:44:33;;;;;;;;;;;13.70;99.90;;;;;;5035601;28;1906;-57
2022/02/14 01:46:59;;;;;;;;;;;13.60;99.90;;;;;;5035859;28;876;-57
2022/02/14 01:49:25;;;;;;;;;;;13.60;99.90;;;;;;5035299;28;789;-56
2022/02/14 01:51:51;;;;;;;;;;;13.60;99.90;;;;;;5035537;28;833;-56
2022/02/14 01:54:17;;;;;;;;;;;13.60;99.90;;;;;;5035625;28;734;-56
2022/02/14 01:56:43;;;;;;;;;;;13.60;99.90;;;;;;5035546;28;777;-56
2022/02/14 01:59:09;;;;;;;;;;;13.60;99.90;;;;;;5035551;28;786;-57
2022/02/14 02:01:35;;;;;;;;;;;13.60;99.90;;;;;;5035561;28;1022;-56
2022/02/14 02:04:00;;;;;;;;;;;13.50;99.90;;;;;;5034553;28;1825;-47
2022/02/14 02:06:26;;;;;;;;;;;13.50;99.90;;;;;;5034956;28;2009;-47
2022/02/14 02:08:53;;;;;;;;;;;13.50;99.90;;;;;;5035649;28;876;-57
2022/02/14 02:14:03;;;;;;;;;;;13.50;99.90;;;;;;5035379;28;841;-56
2022/02/14 02:16:29;;;;;;;;;;;13.50;99.90;;;;;;5035246;28;849;-56
2022/02/14 02:18:55;;;;;;;;;;;13.50;99.90;;;;;;5035351;28;892;-56
2022/02/14 02:21:21;;;;;;;;;;;13.50;99.90;;;;;;5037373;28;927;-56
2022/02/14 02:23:47;;;;;;;;;;;13.50;99.90;;;;;;5039009;28;833;-56
2022/02/14 02:26:13;;;;;;;;;;;13.40;99.90;;;;;;5038909;28;1898;-56
2022/02/14 02:28:40;;;;;;;;;;;13.40;99.90;;;;;;5038842;28;834;-56
2022/02/14 02:31:06;;;;;;;;;;;13.50;99.90;;;;;;5038849;28;988;-56
2022/02/14 02:33:32;;;;;;;;;;;13.40;99.90;;;;;;5036347;28;1371;-56
2022/02/14 02:35:58;;;;;;;;;;;13.40;99.90;;;;;;5037938;28;1089;-56
2022/02/14 02:38:25;;;;;;;;;;;13.40;99.90;;;;;;5039018;28;858;-56
2022/02/14 02:40:51;;;;;;;;;;;13.40;99.90;;;;;;5033568;28;1255;-56
2022/02/14 02:43:17;;;;;;;;;;;13.40;99.90;;;;;;5038467;28;942;-56
2022/02/14 02:45:44;;;;;;;;;;;13.40;99.90;;;;;;5038466;28;1964;-56
2022/02/14 02:48:10;;;;;;;;;;;13.40;99.90;;;;;;5038525;28;755;-56
2022/02/14 02:50:36;;;;;;;;;;;13.30;99.90;;;;;;5038076;28;833;-56
2022/02/14 02:53:01;;;;;;;;;;;13.30;99.90;;;;;;5038377;28;973;-56
2022/02/14 02:55:27;;;;;;;;;;;13.30;99.90;;;;;;5038357;28;798;-56
2022/02/14 02:57:53;;;;;;;;;;;13.30;99.90;;;;;;5038445;28;747;-56
2022/02/14 03:00:19;;;;;;;;;;;13.30;99.90;;;;;;5037927;28;981;-56
2022/02/14 03:02:45;;;;;;;;;;;13.30;99.90;;;;;;5038169;28;817;-56
2022/02/14 03:05:11;;;;;;;;;;;13.30;99.90;;;;;;5035012;28;1898;-56
2022/02/14 03:07:37;;;;;;;;;;;13.30;99.90;;;;;;5038176;28;801;-56
2022/02/14 03:10:03;;;;;;;;;;;13.30;99.90;;;;;;5038094;28;977;-56
2022/02/14 03:12:29;;;;;;;;;;;13.30;99.90;;;;;;5038180;28;874;-56
2022/02/14 03:14:55;;;;;;;;;;;13.20;99.90;;;;;;5038008;28;825;-57
2022/02/14 03:17:23;;;;;;;;;;;13.30;99.90;;;;;;5037983;28;960;-56
2022/02/14 03:19:49;;;;;;;;;;;13.20;99.90;;;;;;5034960;28;1033;-56
2022/02/14 03:22:15;;;;;;;;;;;13.20;99.90;;;;;;5037579;28;1029;-56
2022/02/14 03:24:41;;;;;;;;;;;13.20;99.90;;;;;;5037467;28;949;-56
2022/02/14 03:27:07;;;;;;;;;;;13.20;99.90;;;;;;5038180;28;801;-56
2022/02/14 03:29:33;;;;;;;;;;;13.20;99.90;;;;;;5037844;28;767;-56
2022/02/14 03:32:00;;;;;;;;;;;13.20;99.90;;;;;;5037286;28;802;-56
2022/02/14 03:34:26;;;;;;;;;;;13.20;99.90;;;;;;5037274;28;1061;-57
2022/02/14 03:36:52;;;;;;;;;;;13.20;99.90;;;;;;5037504;28;978;-57
2022/02/14 03:39:18;;;;;;;;;;;13.20;99.90;;;;;;5037518;28;841;-57
2022/02/14 03:41:43;;;;;;;;;;;13.20;99.90;;;;;;5037533;28;795;-56
2022/02/14 03:44:09;;;;;;;;;;;13.20;99.90;;;;;;5037721;28;1004;-56
2022/02/14 03:46:35;;;;;;;;;;;13.10;99.90;;;;;;5019746;28;1973;-56
2022/02/14 03:49:02;;;;;;;;;;;13.10;99.90;;;;;;5037068;28;873;-56
2022/02/14 03:51:27;;;;;;;;;;;13.10;99.90;;;;;;5036680;28;909;-56
2022/02/14 03:53:53;;;;;;;;;;;13.10;99.90;;;;;;5037515;28;888;-56
2022/02/14 03:56:19;;;;;;;;;;;13.10;99.90;;;;;;5037307;28;829;-56
2022/02/14 03:58:45;;;;;;;;;;;13.10;99.90;;;;;;5037584;28;784;-56
2022/02/14 04:01:11;;;;;;;;;;;13.10;99.90;;;;;;5037227;28;743;-56
2022/02/14 04:03:37;;;;;;;;;;;13.10;99.90;;;;;;5037142;28;786;-56
2022/02/14 04:06:03;;;;;;;;;;;13.10;99.90;;;;;;5036756;28;1906;-56
2022/02/14 04:08:29;;;;;;;;;;;13.00;99.90;;;;;;5036998;28;759;-56
2022/02/14 04:10:57;;;;;;;;;;;13.10;99.90;;;;;;5036587;28;906;-56
2022/02/14 04:13:23;;;;;;;;;;;13.10;99.90;;;;;;5036497;28;833;-56
2022/02/14 04:15:49;;;;;;;;;;;13.00;99.90;;;;;;5037096;28;786;-56
2022/02/14 04:18:15;;;;;;;;;;;13.10;99.90;;;;;;5037080;28;818;-56
2022/02/14 04:20:41;;;;;;;;;;;13.00;99.90;;;;;;5036781;28;846;-56
2022/02/14 04:23:07;;;;;;;;;;;13.00;99.90;;;;;;5036128;28;827;-57
2022/02/14 04:25:33;;;;;;;;;;;13.00;99.90;;;;;;5036646;28;1965;-56
2022/02/14 04:27:59;;;;;;;;;;;13.00;99.90;;;;;;5036245;28;1327;-56
2022/02/14 04:30:29;;;;;;;;;;;13.00;99.90;;;;;;5036875;28;872;-56
2022/02/14 04:32:56;;;;;;;;;;;13.00;99.90;;;;;;5032342;28;947;-56
2022/02/14 04:35:23;;;;;;;;;;;13.00;99.90;;;;;;5035929;28;1127;-56
2022/02/14 04:37:49;;;;;;;;;;;13.00;99.90;;;;;;5036524;28;869;-57
2022/02/14 04:40:15;;;;;;;;;;;13.00;99.90;;;;;;5033014;28;913;-56
2022/02/14 04:42:41;;;;;;;;;;;13.00;99.90;;;;;;5014438;28;1274;-56
2022/02/14 04:45:08;;;;;;;;;;;13.00;99.90;;;;;;5034534;28;1905;-56
2022/02/14 04:47:34;;;;;;;;;;;12.90;99.90;;;;;;5036377;28;799;-56
2022/02/14 04:50:00;;;;;;;;;;;13.00;99.90;;;;;;5035497;28;893;-56
2022/02/14 04:52:26;;;;;;;;;;;13.00;99.90;;;;;;5036190;28;754;-56
2022/02/14 04:54:52;;;;;;;;;;;12.90;99.90;;;;;;5018487;28;1020;-57
2022/02/14 04:57:18;;;;;;;;;;;12.90;99.90;;;;;;5036079;28;866;-56
2022/02/14 04:59:44;;;;;;;;;;;12.90;99.90;;;;;;5036044;28;810;-56
2022/02/14 05:02:10;;;;;;;;;;;12.90;99.90;;;;;;5036487;28;1138;-47
2022/02/14 05:04:36;;;;;;;;;;;12.90;99.90;;;;;;5037447;28;928;-55
2022/02/14 05:07:03;;;;;;;;;;;12.90;99.90;;;;;;5036017;28;1902;-56
2022/02/14 05:09:29;;;;;;;;;;;12.90;99.90;;;;;;5034136;28;975;-56
2022/02/14 05:11:55;;;;;;;;;;;12.90;99.90;;;;;;5035224;28;1033;-57
2022/02/14 05:14:22;;;;;;;;;;;12.90;99.90;;;;;;5036012;28;959;-56
2022/02/14 05:16:48;;;;;;;;;;;12.90;99.90;;;;;;5034833;28;1008;-56
2022/02/14 05:19:14;;;;;;;;;;;12.90;99.90;;;;;;5035613;28;901;-56
2022/02/14 05:21:40;;;;;;;;;;;12.80;99.90;;;;;;5035965;28;765;-56
2022/02/14 05:24:06;;;;;;;;;;;12.90;99.90;;;;;;5036147;28;802;-56
2022/02/14 05:26:32;;;;;;;;;;;12.80;99.90;;;;;;5018319;28;2338;-56
2022/02/14 05:28:58;;;;;;;;;;;12.80;99.90;;;;;;5035684;28;892;-56
2022/02/14 05:31:26;;;;;;;;;;;12.80;99.90;;;;;;5035569;28;882;-56
2022/02/14 05:33:52;;;;;;;;;;;12.80;99.90;;;;;;5035313;28;1560;-56
2022/02/14 05:36:19;;;;;;;;;;;12.80;99.90;;;;;;5018329;28;1341;-56
2022/02/14 05:38:45;;;;;;;;;;;12.80;99.90;;;;;;5035379;28;901;-56
2022/02/14 05:41:11;;;;;;;;;;;12.80;99.90;;;;;;5032275;28;872;-56
2022/02/14 05:43:37;;;;;;;;;;;12.80;99.90;;;;;;5035615;28;810;-56
2022/02/14 05:46:03;;;;;;;;;;;12.80;99.90;;;;;;5035561;28;1944;-56
2022/02/14 05:48:29;;;;;;;;;;;12.80;99.90;;;;;;5035553;28;751;-56
2022/02/14 05:50:55;;;;;;;;;;;12.80;99.90;;;;;;5035307;28;766;-56
2022/02/14 05:53:21;;;;;;;;;;;12.80;99.90;;;;;;5035829;28;992;-57
2022/02/14 05:55:47;;;;;;;;;;;12.80;99.90;;;;;;5037149;28;885;-56
2022/02/14 05:58:13;;;;;;;;;;;12.80;99.90;;;;;;5039517;28;855;-47
2022/02/14 06:00:39;;;;;;;;;;;12.80;99.90;;;;;;5039664;28;825;-46
2022/02/14 06:03:05;;;;;;;;;;;12.80;99.90;;;;;;5022323;28;774;-47
2022/02/14 06:05:31;;;;;;;;;;;12.80;99.90;;;;;;5038892;28;1964;-46
2022/02/14 06:07:57;;;;;;;;;;;12.80;99.90;;;;;;5039330;28;874;-47
2022/02/14 06:10:23;;;;;;;;;;;12.80;99.90;;;;;;5039253;28;853;-47
2022/02/14 06:12:49;;;;;;;;;;;12.90;99.90;;;;;;5039108;28;846;-47
2022/02/14 06:15:15;;;;;;;;;;;12.90;99.90;;;;;;5039214;28;854;-56
2022/02/14 06:17:41;;;;;;;;;;;12.90;99.90;;;;;;5039106;28;763;-56
2022/02/14 06:20:07;;;;;;;;;;;13.00;99.90;;;;;;5038290;28;893;-56
2022/02/14 06:22:33;;;;;;;;;;;13.10;99.90;;;;;;5039122;28;897;-56
2022/02/14 06:24:59;;;;;;;;;;;13.10;99.90;;;;;;5038281;28;881;-57
2022/02/14 06:27:25;;;;;;;;;;;13.20;99.90;;;;;;5039038;28;1979;-57
2022/02/14 06:29:51;;;;;;;;;;;13.30;99.90;;;;;;5038854;28;1056;-57
2022/02/14 06:32:17;;;;;;;;;;;13.30;99.90;;;;;;5038644;28;883;-57
2022/02/14 06:34:43;;;;;;;;;;;13.40;99.90;;;;;;5038525;28;1152;-57
2022/02/14 06:37:09;;;;;;;;;;;13.50;99.90;;;;;;5038763;28;861;-57
2022/02/14 06:39:35;;;;;;;;;;;13.60;99.90;;;;;;5037802;28;1310;-57
2022/02/14 06:42:01;;;;;;;;;;;13.60;99.90;;;;;;5020959;28;912;-57
2022/02/14 06:44:27;;;;;;;;;;;13.70;99.90;;;;;;5038642;28;789;-57
2022/02/14 06:46:54;;;;;;;;;;;13.80;99.90;;;;;;5038477;28;1969;-57
2022/02/14 06:49:20;;;;;;;;;;;13.90;99.90;;;;;;5020855;28;1234;-56
2022/02/14 06:51:46;;;;;;;;;;;13.90;99.90;;;;;;5037693;28;1381;-56
2022/02/14 06:54:12;;;;;;;;;;;14.00;99.90;;;;;;5038492;28;762;-57
2022/02/14 06:56:38;;;;;;;;;;;14.10;99.90;;;;;;5021182;28;892;-56
2022/02/14 06:59:04;;;;;;;;;;;14.20;99.90;;;;;;5038385;28;852;-57
2022/02/14 07:01:30;;;;;;;;;;;14.20;99.90;;;;;;5038347;28;846;-56
2022/02/14 07:03:55;;;;;;;;;;;14.30;99.90;;;;;;5038289;28;862;-57
2022/02/14 07:06:21;;;;;;;;;;;14.40;99.90;;;;;;5037300;28;1902;-57
2022/02/14 07:08:48;;;;;;;;;;;14.40;99.90;;;;;;5036828;28;1036;-56
2022/02/14 07:11:14;;;;;;;;;;;14.50;99.90;;;;;;5037654;28;886;-57
2022/02/14 07:13:40;;;;;;;;;;;14.60;99.90;;;;;;5036497;28;1014;-56
2022/02/14 07:16:06;;;;;;;;;;;14.60;99.90;;;;;;5037220;28;975;-57
2022/02/14 07:18:32;;;;;;;;;;;14.70;99.90;;;;;;5037953;28;843;-57
2022/02/14 07:20:58;;;;;;;;;;;14.70;99.90;;;;;;5020042;28;1359;-57
2022/02/14 07:23:24;;;;;;;;;;;14.80;99.90;;;;;;5038100;28;767;-57
2022/02/14 07:25:50;;;;;;;;;;;14.80;99.90;;;;;;5037743;28;1990;-57
2022/02/14 07:28:16;;;;;;;;;;;14.80;99.90;;;;;;5037383;28;909;-57
2022/02/14 07:30:42;;;;;;;;;;;14.90;99.90;;;;;;5017275;28;1236;-57
2022/02/14 07:33:08;;;;;;;;;;;14.90;99.90;;;;;;5036634;28;1183;-57
2022/02/14 07:35:34;;;;;;;;;;;15.10;99.90;;;;;;5036131;28;1169;-57
2022/02/14 07:38:00;;;;;;;;;;;15.80;99.90;;;;;;5037024;28;1103;-57
2022/02/14 07:40:26;;;;;;;;;;;16.10;99.90;;;;;;5037620;28;774;-57
2022/02/14 07:42:52;;;;;;;;;;;16.20;99.90;;;;;;5037295;28;1061;-57
2022/02/14 07:45:18;;;;;;;;;;;16.60;99.90;;;;;;5037028;28;1216;-57
2022/02/14 07:47:45;;;;;;;;;;;16.70;99.90;;;;;;5037156;28;1910;-58
2022/02/14 07:50:12;;;;;;;;;;;16.30;99.90;;;;;;5036826;28;1093;-57
2022/02/14 07:52:39;;;;;;;;;;;16.10;99.90;;;;;;5036827;28;1234;-57
2022/02/14 07:55:05;;;;;;;;;;;16.40;99.90;;;;;;5036881;28;1223;-57
2022/02/14 07:57:31;;;;;;;;;;;16.50;99.90;;;;;;5036840;28;1262;-58
2022/02/14 07:59:58;;;;;;;;;;;16.80;99.90;;;;;;5019430;28;1290;-47
2022/02/14 08:02:24;;;;;;;;;;;17.00;99.90;;;;;;5037039;28;1211;-47
2022/02/14 08:04:50;;;;;;;;;;;17.50;99.90;;;;;;5034164;28;1160;-47
2022/02/14 08:07:16;;;;;;;;;;;17.40;99.90;;;;;;5032737;28;1918;-47
2022/02/14 08:09:42;;;;;;;;;;;17.60;99.90;;;;;;5035700;28;1176;-47
2022/02/14 08:12:09;;;;;;;;;;;17.80;99.90;;;;;;5036517;28;1045;-47
2022/02/14 08:14:35;;;;;;;;;;;17.30;99.90;;;;;;5036768;28;1150;-47
2022/02/14 08:17:02;;;;;;;;;;;16.80;99.90;;;;;;5031994;28;1176;-47
2022/02/14 08:19:28;;;;;;;;;;;16.50;99.90;;;;;;5018635;28;1262;-47
2022/02/14 08:21:54;;;;;;;;;;;16.30;99.90;;;;;;5036263;28;1902;-47
2022/02/14 08:24:22;;;;;;;;;;;16.10;99.90;;;;;;5036017;28;1029;-47
2022/02/14 08:26:48;;;;;;;;;;;16.00;99.90;;;;;;5032975;28;1969;-57
2022/02/14 08:29:14;;;;;;;;;;;16.00;99.90;;;;;;5036326;28;1061;-57
2022/02/14 08:31:40;;;;;;;;;;;15.90;99.90;;;;;;5035566;28;1085;-57
2022/02/14 08:34:06;;;;;;;;;;;15.90;99.90;;;;;;5033275;28;1223;-57
2022/02/14 08:36:32;;;;;;;;;;;15.90;99.90;;;;;;5017593;28;1226;-57
2022/02/14 08:38:58;;;;;;;;;;;15.90;99.90;;;;;;5035639;28;1481;-57
2022/02/14 08:41:24;;;;;;;;;;;15.90;99.90;;;;;;5036292;28;1270;-47
2022/02/14 08:43:51;;;;;;;;;;;15.90;99.90;;;;;;5033991;28;1200;-47
2022/02/14 08:46:20;;;;;;;;;;;15.90;99.90;;;;;;5016843;28;1911;-47
2022/02/14 08:48:47;;;;;;;;;;;15.90;99.90;;;;;;5018016;28;1325;-48
2022/02/14 08:51:17;;;;;;;;;;;15.90;99.90;;;;;;5035359;28;1565;-57
2022/02/14 08:54:06;;;;;;;;;;;16.00;99.90;;;;;;5035394;28;1029;-58
2022/02/14 08:56:46;;;;;;;;;;;16.00;99.90;;;;;;5033910;28;1160;-57
2022/02/14 08:59:19;;;;;;;;;;;16.00;99.90;;;;;;5017929;28;1294;-57
2022/02/14 09:01:47;;;;;;;;;;;16.00;99.90;;;;;;5034868;28;1247;-58
2022/02/14 09:04:14;;;;;;;;;;;16.00;99.90;;;;;;5032852;28;1240;-57
2022/02/14 09:06:40;;;;;;;;;;;16.00;99.90;;;;;;5017684;28;1982;-57
2022/02/14 09:09:06;;;;;;;;;;;16.00;99.90;;;;;;5035690;28;1207;-57
2022/02/14 09:11:33;;;;;;;;;;;16.00;99.90;;;;;;5035883;28;1224;-57
2022/02/14 09:13:59;;;;;;;;;;;16.10;99.90;;;;;;5035687;28;1282;-57
2022/02/14 09:16:25;;;;;;;;;;;16.10;99.90;;;;;;5035607;28;1269;-47
2022/02/14 09:18:51;;;;;;;;;;;16.10;99.90;;;;;;5035743;28;1125;-47
2022/02/14 09:21:17;;;;;;;;;;;16.10;99.90;;;;;;5035005;28;1168;-47
2022/02/14 09:23:43;;;;;;;;;;;16.10;99.90;;;;;;5035430;28;1136;-47
2022/02/14 09:26:09;;;;;;;;;;;16.10;99.90;;;;;;5035363;28;1974;-47
2022/02/14 09:28:35;;;;;;;;;;;16.10;99.90;;;;;;5034692;28;1247;-48
2022/02/14 09:31:01;;;;;;;;;;;16.10;99.90;;;;;;5039485;28;1132;-47
2022/02/14 09:33:27;;;;;;;;;;;16.10;99.90;;;;;;5042030;28;1096;-47
2022/02/14 09:35:53;;;;;;;;;;;16.20;99.90;;;;;;5023945;28;1442;-47
2022/02/14 09:38:19;;;;;;;;;;;16.20;99.90;;;;;;5041902;28;1370;-47
2022/02/14 09:40:45;;;;;;;;;;;16.20;99.90;;;;;;5042230;28;1107;-47
2022/02/14 09:43:13;;;;;;;;;;;16.20;99.90;;;;;;5042191;28;1112;-47
2022/02/14 09:45:39;;;;;;;;;;;16.20;99.90;;;;;;5041850;28;1184;-48
2022/02/14 09:48:06;;;;;;;;;;;16.20;99.90;;;;;;5041933;28;1037;-48
2022/02/14 09:50:34;;;;;;;;;;;16.20;99.90;;;;;;5040850;28;1104;-48
2022/02/14 09:53:02;;;;;;;;;;;16.20;99.90;;;;;;5040894;28;1119;-47
2022/02/14 09:55:28;;;;;;;;;;;16.20;99.90;;;;;;5025104;28;838;-47
2022/02/14 09:57:55;;;;;;;;;;;16.30;99.90;;;;;;5042207;28;833;-47
2022/02/14 10:00:21;;;;;;;;;;;16.30;99.90;;;;;;5042204;28;826;-47
2022/02/14 10:03:06;;;;;;;;;;;16.30;99.90;;;;;;5041423;28;1032;-47
2022/02/14 10:05:41;;;;;;;;;;;16.30;99.90;;;;;;5042102;28;772;-47
2022/02/14 10:08:07;;;;;;;;;;;16.30;99.90;;;;;;5041551;28;1906;-47
2022/02/14 10:10:33;;;;;;;;;;;16.30;99.90;;;;;;5041849;28;1083;-47
2022/02/14 10:12:59;;;;;;;;;;;16.30;99.90;;;;;;5041941;28;783;-47
2022/02/14 10:15:27;;;;;;;;;;;16.40;99.90;;;;;;5041887;28;984;-47
2022/02/14 10:17:56;;;;;;;;;;;16.40;99.90;;;;;;5041877;28;802;-47
2022/02/14 10:20:24;;;;;;;;;;;16.40;99.90;;;;;;5040824;28;916;-55
2022/02/14 10:22:51;;;;;;;;;;;16.40;99.90;;;;;;5041685;28;1128;-47
2022/02/14 10:25:29;;;;;;;;;;;16.40;99.90;;;;;;5024032;28;1372;-47
2022/02/14 10:28:11;;;;;;;;;;;16.50;99.90;;;;;;5039426;28;1902;-47
2022/02/14 10:30:59;;;;;;;;;;;16.50;99.90;;;;;;5040555;28;1771;-46
2022/02/14 10:33:43;;;;;;;;;;;16.60;99.90;;;;;;5041714;28;1156;-48
2022/02/14 10:36:09;;;;;;;;;;;16.60;99.90;;;;;;5023907;28;1682;-47
2022/02/14 10:38:38;;;;;;;;;;;16.70;99.90;;;;;;5022791;28;1404;-49
2022/02/14 10:41:14;;;;;;;;;;;16.70;99.90;;;;;;5040608;28;754;-47
2022/02/14 10:43:41;;;;;;;;;;;16.80;99.90;;;;;;5019170;28;1301;-47
2022/02/14 10:46:07;;;;;;;;;;;16.80;99.90;;;;;;5037978;28;1902;-47
2022/02/14 10:48:40;;;;;;;;;;;16.80;99.90;;;;;;5033972;28;864;-47
2022/02/14 10:51:06;;;;;;;;;;;16.80;99.90;;;;;;5036868;28;1327;-47
2022/02/14 10:53:41;;;;;;;;;;;16.90;99.90;;;;;;5036585;28;1274;-47
2022/02/14 10:56:07;;;;;;;;;;;16.90;99.90;;;;;;5038551;28;824;-47
2022/02/14 10:58:33;;;;;;;;;;;16.90;99.90;;;;;;5038533;28;866;-47
2022/02/14 11:00:59;;;;;;;;;;;16.90;99.90;;;;;;5037814;28;975;-47
2022/02/14 11:03:25;;;;;;;;;;;16.90;99.90;;;;;;5038488;28;810;-47
2022/02/14 11:05:52;;;;;;;;;;;16.90;99.90;;;;;;5037966;28;834;-47
2022/02/14 11:08:20;;;;;;;;;;;16.90;99.90;;;;;;5033101;28;875;-47
2022/02/14 11:10:48;;;;;;;;;;;16.90;99.90;;;;;;5033800;28;758;-47
2022/02/14 11:13:16;;;;;;;;;;;16.90;99.90;;;;;;5038539;28;1040;-47
2022/02/14 11:15:42;;;;;;;;;;;16.90;99.90;;;;;;5038249;28;831;-48
2022/02/14 11:18:12;;;;;;;;;;;17.00;99.90;;;;;;5037517;28;1027;-48
2022/02/14 11:20:40;;;;;;;;;;;17.00;99.90;;;;;;5033296;28;861;-47
2022/02/14 11:23:07;;;;;;;;;;;17.00;99.90;;;;;;5036974;28;834;-47
2022/02/14 11:25:41;;;;;;;;;;;17.00;99.90;;;;;;5037821;28;862;-48
2022/02/14 11:28:13;;;;;;;;;;;17.00;99.90;;;;;;5037757;28;1905;-47
2022/02/14 11:30:39;;;;;;;;;;;17.00;99.90;;;;;;5037882;28;783;-47
2022/02/14 11:33:13;;;;;;;;;;;17.00;99.90;;;;;;5037962;28;931;-47
2022/02/14 11:35:40;;;;;;;;;;;16.90;99.90;;;;;;5037345;28;1215;-47
2022/02/14 11:38:06;;;;;;;;;;;16.90;99.90;;;;;;5038001;28;806;-47
2022/02/14 11:40:41;;;;;;;;;;;16.90;99.90;;;;;;5037483;28;1051;-47
2022/02/14 11:43:10;;;;;;;;;;;16.90;99.90;;;;;;5037364;28;857;-47
2022/02/14 11:45:37;;;;;;;;;;;16.90;99.90;;;;;;5020051;28;1356;-47
2022/02/14 11:48:29;;;;;;;;;;;16.90;99.90;;;;;;5037172;28;1905;-47
2022/02/14 11:51:09;;;;;;;;;;;16.90;99.90;;;;;;5033152;28;1768;-47
2022/02/14 11:53:41;;;;;;;;;;;16.90;99.90;;;;;;5014724;28;1201;-47
2022/02/14 11:56:22;;;;;;;;;;;16.90;99.90;;;;;;5037255;28;1049;-47
2022/02/14 11:59:01;;;;;;;;;;;16.90;99.90;;;;;;5037211;28;808;-47
2022/02/14 12:01:27;;;;;;;;;;;16.90;99.90;;;;;;5037362;28;798;-47
2022/02/14 12:03:57;;;;;;;;;;;16.90;99.90;;;;;;5037208;28;1010;-47
2022/02/14 12:06:23;;;;;;;;;;;17.00;99.90;;;;;;5036903;28;1981;-47
2022/02/14 12:09:01;;;;;;;;;;;17.00;99.90;;;;;;5037013;28;1257;-47
2022/02/14 12:11:45;;;;;;;;;;;17.00;99.90;;;;;;5036678;28;1142;-47
2022/02/14 12:14:18;;;;;;;;;;;17.00;99.90;;;;;;5036298;28;964;-47
2022/02/14 12:22:31;;;;;;;;;;;17.10;99.90;;;;;;5035344;28;1556;-47
2022/02/14 12:24:57;;;;;;;;;;;17.10;99.90;;;;;;5036947;28;791;-47
2022/02/14 12:27:23;;;;;;;;;;;17.10;99.90;;;;;;5036115;28;1977;-47
2022/02/14 12:29:50;;;;;;;;;;;17.10;99.90;;;;;;5035530;28;834;-47
2022/02/14 12:32:17;;;;;;;;;;;17.20;99.90;;;;;;5036957;28;953;-47
2022/02/14 12:34:45;;;;;;;;;;;17.20;99.90;;;;;;5030572;28;1010;-47
2022/02/14 12:37:13;;;;;;;;;;;17.20;99.90;;;;;;5031259;28;1018;-49
2022/02/14 12:39:41;;;;;;;;;;;17.20;99.90;;;;;;5035972;28;921;-48
2022/02/14 12:42:09;;;;;;;;;;;17.20;99.90;;;;;;5013367;28;1274;-48
2022/02/14 12:44:35;;;;;;;;;;;17.30;99.90;;;;;;5014121;28;1052;-48
2022/02/14 12:47:02;;;;;;;;;;;17.40;99.90;;;;;;5031264;28;1966;-47
2022/02/14 12:49:28;;;;;;;;;;;17.50;99.90;;;;;;5036068;28;924;-47
2022/02/14 12:52:07;;;;;;;;;;;17.40;99.90;;;;;;5016122;28;1376;-47
2022/02/14 12:54:33;;;;;;;;;;;17.50;99.90;;;;;;5035426;28;881;-47
2022/02/14 12:56:59;;;;;;;;;;;17.50;99.90;;;;;;5036086;28;1041;-47
2022/02/14 12:59:32;;;;;;;;;;;17.40;99.90;;;;;;5032026;28;1137;-47
2022/02/14 13:01:58;;;;;;;;;;;17.50;99.90;;;;;;5019029;28;775;-49
2022/02/14 13:04:28;;;;;;;;;;;17.50;99.90;;;;;;5035667;28;874;-46
2022/02/14 13:06:55;;;;;;;;;;;17.40;99.90;;;;;;5035475;28;1902;-47
2022/02/14 13:09:26;;;;;;;;;;;17.30;99.90;;;;;;5018872;28;1179;-46
2022/02/14 13:11:53;;;;;;;;;;;17.30;99.90;;;;;;5034837;28;1314;-49
2022/02/14 13:14:25;;;;;;;;;;;17.30;99.90;;;;;;5036350;28;749;-48
2022/02/14 13:16:52;;;;;;;;;;;17.30;99.90;;;;;;5035670;28;869;-48
2022/02/14 13:19:18;;;;;;;;;;;17.30;99.90;;;;;;5035917;28;894;-48
2022/02/14 13:21:44;;;;;;;;;;;17.30;99.90;;;;;;5035706;28;1052;-48
2022/02/14 13:24:24;;;;;;;;;;;17.30;99.90;;;;;;5034788;28;1079;-48
2022/02/14 13:27:08;;;;;;;;;;;17.20;99.90;;;;;;5033775;28;1975;-49
2022/02/14 13:29:44;;;;;;;;;;;17.20;99.90;;;;;;5035053;28;1282;-48
2022/02/14 13:32:11;;;;;;;;;;;17.20;99.90;;;;;;5035557;28;1226;-48
2022/02/14 13:34:50;;;;;;;;;;;17.20;99.90;;;;;;5034653;28;1307;-48
2022/02/14 13:37:16;;;;;;;;;;;17.20;99.90;;;;;;5035611;28;849;-48
2022/02/14 13:39:42;;;;;;;;;;;17.20;99.90;;;;;;5035298;28;984;-48
2022/02/14 13:42:16;;;;;;;;;;;17.20;99.90;;;;;;5035058;28;846;-48
2022/02/14 13:44:53;;;;;;;;;;;17.20;99.90;;;;;;5035921;28;736;-48
2022/02/14 13:47:19;;;;;;;;;;;17.20;99.90;;;;;;5018249;28;1966;-48
2022/02/14 13:49:45;;;;;;;;;;;17.20;99.90;;;;;;5035518;28;864;-48
2022/02/14 13:52:22;;;;;;;;;;;17.20;99.90;;;;;;5035634;28;766;-48
2022/02/14 13:55:05;;;;;;;;;;;17.20;99.90;;;;;;5035319;28;754;-48
2022/02/14 13:57:31;;;;;;;;;;;17.30;99.90;;;;;;5035476;28;828;-48
2022/02/14 13:59:57;;;;;;;;;;;17.30;99.90;;;;;;5018156;28;980;-48
2022/02/14 14:02:27;;;;;;;;;;;17.30;99.90;;;;;;5018000;28;1242;-48
2022/02/14 14:05:11;;;;;;;;;;;17.30;99.90;;;;;;5035425;28;802;-48
2022/02/14 14:07:42;;;;;;;;;;;17.30;99.90;;;;;;5035385;28;1974;-48
2022/02/14 14:10:09;;;;;;;;;;;17.30;99.90;;;;;;5018368;28;1084;-48
2022/02/14 14:12:44;;;;;;;;;;;17.30;99.90;;;;;;5032588;28;1357;-48
2022/02/14 14:15:10;;;;;;;;;;;17.30;99.90;;;;;;5033499;28;1273;-48
2022/02/14 14:17:36;;;;;;;;;;;17.30;99.90;;;;;;5020377;28;1316;-48
2022/02/14 14:20:02;;;;;;;;;;;17.30;99.90;;;;;;5038450;28;1373;-58
2022/02/14 14:22:34;;;;;;;;;;;17.30;99.90;;;;;;5038190;28;1258;-58
2022/02/14 14:25:00;;;;;;;;;;;17.40;99.90;;;;;;5020362;28;1256;-58
2022/02/14 14:27:27;;;;;;;;;;;17.40;99.90;;;;;;5037915;28;1898;-58
2022/02/14 14:29:53;;;;;;;;;;;17.30;99.90;;;;;;5038435;28;1282;-58
2022/02/14 14:32:20;;;;;;;;;;;17.30;99.90;;;;;;5020589;28;1353;-58
2022/02/14 14:34:47;;;;;;;;;;;17.30;99.90;;;;;;5025853;28;1293;-58
2022/02/14 14:37:13;;;;;;;;;;;17.40;99.90;;;;;;5036044;28;1340;-58
2022/02/14 14:39:39;;;;;;;;;;;17.30;99.90;;;;;;5038396;28;1155;-58
2022/02/14 14:42:05;;;;;;;;;;;17.30;99.90;;;;;;5038371;28;1135;-58
2022/02/14 14:44:32;;;;;;;;;;;17.30;99.90;;;;;;5037939;28;1246;-58
2022/02/14 14:46:59;;;;;;;;;;;17.30;99.90;;;;;;5037039;28;1902;-57